Darden, Tennessee
Current Conditions -  °F | °C
As of 5:55 AM on Thursday 27 Nov 2014 (Local Time) from KPVE Reporting Station
Overcast Overcast  
Wind Chill: -2°   Ceiling: 1800
Heat Index:   Visibility: 10mi
Dew Point: -1°   Wind: 9mph
Humidity: 81%   Direction: 310°NW
Pressure: 30.3"   Gusts: NA
Location:  35.64°N, 88.22°W
Report Text: KPVE 271155Z AUTO 31008KT 10SM BKN018 OVC028 02/M01 A3030 RMK
Loading
Personal Weather Stations






























Interactive Weather Map New forecast layout! Learn more

10-Day Weather Forecast

Advertisements
Track Severe Weather on mobile